Chicago (ORD/KORD)

Information

Location
Chicago-O'Hare, IL
Local Time
17:27 / 5:27 pm
GMT Time
22:27 / 10:27 pm
Gates
Unassigned
No FAA reported delays
METAR KORD 272151Z 03008KT 7SM OVC011 09/06 A2990 RMK AO2 RAE47 SLP129 P0000 T00890056
TAF KORD 272100Z 2721/2824 06007KT 6SM BR VCSH OVC010 TEMPO 2721/2723 -SHRA FM280000 03010KT 6SM BR OVC009 FM281600 03011KT P6SM OVC012
  • No charts available